sensor_id;sensor_type;location;lat;lon;timestamp;P1;durP1;ratioP1;P2;durP2;ratioP2
59653;SDS011;66556;52.008;5.432;2023-02-21T02:14:36;65.7;;;34.4;;
59653;SDS011;66556;52.008;5.432;2023-02-21T02:16:28;68.1;;;34.81;;
59653;SDS011;66556;52.008;5.432;2023-02-21T02:18:24;66.2;;;34.71;;
59653;SDS011;66556;52.008;5.432;2023-02-21T02:22:11;67.6;;;35.4;;
59653;SDS011;66556;52.008;5.432;2023-02-21T02:24:21;60.5;;;34.4;;
59653;SDS011;66556;52.008;5.432;2023-02-21T02:26:58;61.4;;;33.8;;
59653;SDS011;66556;52.008;5.432;2023-02-21T02:34:51;65.6;;;33.71;;
59653;SDS011;66556;52.008;5.432;2023-02-21T02:36:36;67.2;;;35.4;;
59653;SDS011;66556;52.008;5.432;2023-02-21T02:40:03;65.1;;;34.1;;
59653;SDS011;66556;52.008;5.432;2023-02-21T02:41:52;59.3;;;33.1;;
59653;SDS011;66556;52.008;5.432;2023-02-21T02:43:40;69.0;;;34.9;;
59653;SDS011;66556;52.008;5.432;2023-02-21T02:45:25;68.2;;;35.21;;
59653;SDS011;66556;52.008;5.432;2023-02-21T02:47:10;69.2;;;34.81;;
59653;SDS011;66556;52.008;5.432;2023-02-21T02:50:37;72.3;;;36.5;;
59653;SDS011;66556;52.008;5.432;2023-02-21T02:52:16;61.8;;;33.1;;
59653;SDS011;66556;52.008;5.432;2023-02-21T02:53:52;62.6;;;33.3;;
59653;SDS011;66556;52.008;5.432;2023-02-21T02:55:31;59.3;;;32.1;;
59653;SDS011;66556;52.008;5.432;2023-02-21T02:58:50;69.8;;;34.1;;
59653;SDS011;66556;52.008;5.432;2023-02-21T03:00:31;55.8;;;30.7;;
59653;SDS011;66556;52.008;5.432;2023-02-21T03:02:17;46.4;;;28.0;;
59653;SDS011;66556;52.008;5.432;2023-02-21T03:04:43;51.8;;;27.9;;
59653;SDS011;66556;52.008;5.432;2023-02-21T03:06:35;67.3;;;32.4;;
59653;SDS011;66556;52.008;5.432;2023-02-21T03:08:27;54.4;;;30.4;;
59653;SDS011;66556;52.008;5.432;2023-02-21T03:12:04;57.1;;;31.8;;
59653;SDS011;66556;52.008;5.432;2023-02-21T03:15:34;78.61;;;36.31;;
59653;SDS011;66556;52.008;5.432;2023-02-21T03:17:19;66.5;;;35.0;;
59653;SDS011;66556;52.008;5.432;2023-02-21T03:19:02;75.61;;;36.6;;
59653;SDS011;66556;52.008;5.432;2023-02-21T03:20:43;68.5;;;35.4;;
59653;SDS011;66556;52.008;5.432;2023-02-21T03:22:29;68.7;;;35.9;;
59653;SDS011;66556;52.008;5.432;2023-02-21T03:25:46;77.11;;;37.0;;
59653;SDS011;66556;52.008;5.432;2023-02-21T03:27:25;75.0;;;37.31;;
59653;SDS011;66556;52.008;5.432;2023-02-21T03:29:04;79.41;;;39.1;;
59653;SDS011;66556;52.008;5.432;2023-02-21T03:33:57;72.7;;;37.6;;
59653;SDS011;66556;52.008;5.432;2023-02-21T03:35:33;76.0;;;37.71;;
59653;SDS011;66556;52.008;5.432;2023-02-21T03:37:10;67.8;;;36.81;;
59653;SDS011;66556;52.008;5.432;2023-02-21T03:40:33;83.1;;;40.1;;
59653;SDS011;66556;52.008;5.432;2023-02-21T03:42:09;78.0;;;39.81;;
59653;SDS011;66556;52.008;5.432;2023-02-21T03:43:45;71.11;;;38.0;;
59653;SDS011;66556;52.008;5.432;2023-02-21T03:46:58;83.5;;;41.5;;
59653;SDS011;66556;52.008;5.432;2023-02-21T03:48:35;72.41;;;37.9;;
59653;SDS011;66556;52.008;5.432;2023-02-21T03:50:11;78.41;;;40.9;;
59653;SDS011;66556;52.008;5.432;2023-02-21T03:51:48;69.2;;;39.31;;
59653;SDS011;66556;52.008;5.432;2023-02-21T03:55:00;79.41;;;40.31;;
59653;SDS011;66556;52.008;5.432;2023-02-21T03:56:37;91.9;;;45.5;;
59653;SDS011;66556;52.008;5.432;2023-02-21T03:58:13;94.5;;;44.0;;
59653;SDS011;66556;52.008;5.432;2023-02-21T04:01:27;87.1;;;44.5;;
59653;SDS011;66556;52.008;5.432;2023-02-21T04:03:03;86.2;;;43.4;;
59653;SDS011;66556;52.008;5.432;2023-02-21T04:04:39;85.8;;;43.8;;
59653;SDS011;66556;52.008;5.432;2023-02-21T04:07:52;89.3;;;44.4;;
59653;SDS011;66556;52.008;5.432;2023-02-21T04:09:29;84.7;;;42.8;;
59653;SDS011;66556;52.008;5.432;2023-02-21T04:11:05;80.3;;;42.1;;
59653;SDS011;66556;52.008;5.432;2023-02-21T04:12:42;95.6;;;45.3;;
59653;SDS011;66556;52.008;5.432;2023-02-21T04:15:54;77.61;;;42.7;;
59653;SDS011;66556;52.008;5.432;2023-02-21T04:17:30;88.6;;;43.9;;
59653;SDS011;66556;52.008;5.432;2023-02-21T04:19:06;94.5;;;44.0;;
59653;SDS011;66556;52.008;5.432;2023-02-21T04:22:22;76.5;;;41.6;;
59653;SDS011;66556;52.008;5.432;2023-02-21T04:23:58;81.5;;;44.3;;
59653;SDS011;66556;52.008;5.432;2023-02-21T04:25:34;83.5;;;44.1;;
59653;SDS011;66556;52.008;5.432;2023-02-21T04:28:48;77.7;;;42.0;;
59653;SDS011;66556;52.008;5.432;2023-02-21T04:30:24;103.6;;;47.6;;
59653;SDS011;66556;52.008;5.432;2023-02-21T04:32:02;91.8;;;46.0;;
59653;SDS011;66556;52.008;5.432;2023-02-21T04:33:38;94.9;;;47.0;;
59653;SDS011;66556;52.008;5.432;2023-02-21T04:36:51;90.1;;;44.6;;
59653;SDS011;66556;52.008;5.432;2023-02-21T04:38:27;92.0;;;45.3;;
59653;SDS011;66556;52.008;5.432;2023-02-21T04:40:03;76.91;;;42.0;;
59653;SDS011;66556;52.008;5.432;2023-02-21T04:43:20;81.5;;;42.3;;
59653;SDS011;66556;52.008;5.432;2023-02-21T04:44:55;88.8;;;43.1;;
59653;SDS011;66556;52.008;5.432;2023-02-21T04:46:32;78.8;;;42.0;;
59653;SDS011;66556;52.008;5.432;2023-02-21T04:49:50;99.3;;;46.8;;
59653;SDS011;66556;52.008;5.432;2023-02-21T04:51:26;104.4;;;48.8;;
59653;SDS011;66556;52.008;5.432;2023-02-21T04:53:02;99.5;;;46.6;;
59653;SDS011;66556;52.008;5.432;2023-02-21T04:54:38;123.6;;;48.3;;
59653;SDS011;66556;52.008;5.432;2023-02-21T04:57:54;97.5;;;45.4;;
59653;SDS011;66556;52.008;5.432;2023-02-21T04:59:30;92.7;;;45.5;;
59653;SDS011;66556;52.008;5.432;2023-02-21T05:01:06;106.3;;;45.9;;
59653;SDS011;66556;52.008;5.432;2023-02-21T05:04:19;133.2;;;50.5;;
59653;SDS011;66556;52.008;5.432;2023-02-21T05:05:55;74.8;;;41.3;;
59653;SDS011;66556;52.008;5.432;2023-02-21T05:07:32;121.0;;;48.7;;
59653;SDS011;66556;52.008;5.432;2023-02-21T05:09:08;109.3;;;48.2;;
59653;SDS011;66556;52.008;5.432;2023-02-21T05:12:21;119.6;;;48.1;;
59653;SDS011;66556;52.008;5.432;2023-02-21T05:13:57;107.8;;;48.5;;
59653;SDS011;66556;52.008;5.432;2023-02-21T05:15:34;116.3;;;49.1;;
59653;SDS011;66556;52.008;5.432;2023-02-21T05:18:46;88.7;;;45.2;;
59653;SDS011;66556;52.008;5.432;2023-02-21T05:20:24;85.6;;;42.9;;
59653;SDS011;66556;52.008;5.432;2023-02-21T05:22:01;104.5;;;47.0;;
59653;SDS011;66556;52.008;5.432;2023-02-21T05:25:17;111.4;;;47.2;;
59653;SDS011;66556;52.008;5.432;2023-02-21T05:26:55;123.1;;;50.0;;
59653;SDS011;66556;52.008;5.432;2023-02-21T05:28:32;118.1;;;49.5;;
59653;SDS011;66556;52.008;5.432;2023-02-21T05:30:10;112.9;;;47.4;;
59653;SDS011;66556;52.008;5.432;2023-02-21T05:33:24;101.8;;;45.5;;
59653;SDS011;66556;52.008;5.432;2023-02-21T05:35:01;136.6;;;51.4;;
59653;SDS011;66556;52.008;5.432;2023-02-21T05:36:38;113.1;;;47.9;;
59653;SDS011;66556;52.008;5.432;2023-02-21T05:39:53;97.9;;;46.4;;
59653;SDS011;66556;52.008;5.432;2023-02-21T05:41:29;121.1;;;50.1;;
59653;SDS011;66556;52.008;5.432;2023-02-21T05:43:06;107.9;;;47.5;;
59653;SDS011;66556;52.008;5.432;2023-02-21T05:44:42;97.4;;;45.2;;
59653;SDS011;66556;52.008;5.432;2023-02-21T05:48:01;116.2;;;48.7;;
59653;SDS011;66556;52.008;5.432;2023-02-21T05:49:38;123.5;;;50.3;;
59653;SDS011;66556;52.008;5.432;2023-02-21T05:51:15;102.0;;;46.7;;
59653;SDS011;66556;52.008;5.432;2023-02-21T05:54:28;114.1;;;49.1;;
59653;SDS011;66556;52.008;5.432;2023-02-21T05:56:04;122.5;;;48.3;;
59653;SDS011;66556;52.008;5.432;2023-02-21T05:57:40;122.5;;;48.3;;
59653;SDS011;66556;52.008;5.432;2023-02-21T06:00:56;138.1;;;53.3;;
59653;SDS011;66556;52.008;5.432;2023-02-21T06:02:33;115.6;;;48.6;;
59653;SDS011;66556;52.008;5.432;2023-02-21T06:04:09;112.7;;;47.6;;
59653;SDS011;66556;52.008;5.432;2023-02-21T06:05:46;123.5;;;50.0;;
59653;SDS011;66556;52.008;5.432;2023-02-21T06:08:58;134.9;;;52.5;;
59653;SDS011;66556;52.008;5.432;2023-02-21T06:10:35;121.2;;;49.5;;
59653;SDS011;66556;52.008;5.432;2023-02-21T06:12:12;129.5;;;50.7;;
59653;SDS011;66556;52.008;5.432;2023-02-21T06:15:26;116.3;;;50.0;;
59653;SDS011;66556;52.008;5.432;2023-02-21T06:17:02;99.0;;;44.7;;
59653;SDS011;66556;52.008;5.432;2023-02-21T06:18:38;114.0;;;47.9;;
59653;SDS011;66556;52.008;5.432;2023-02-21T06:20:15;79.91;;;42.5;;
59653;SDS011;66556;52.008;5.432;2023-02-21T06:23:29;123.9;;;48.7;;
59653;SDS011;66556;52.008;5.432;2023-02-21T06:25:05;113.1;;;49.7;;
59653;SDS011;66556;52.008;5.432;2023-02-21T06:26:44;128.7;;;50.7;;
59653;SDS011;66556;52.008;5.432;2023-02-21T06:29:57;148.31;;;52.9;;
59653;SDS011;66556;52.008;5.432;2023-02-21T06:31:33;133.5;;;52.1;;
59653;SDS011;66556;52.008;5.432;2023-02-21T06:33:09;127.1;;;51.5;;
59653;SDS011;66556;52.008;5.432;2023-02-21T06:36:22;105.5;;;48.1;;
59653;SDS011;66556;52.008;5.432;2023-02-21T06:38:01;133.6;;;51.0;;
59653;SDS011;66556;52.008;5.432;2023-02-21T06:39:38;129.9;;;51.4;;
59653;SDS011;66556;52.008;5.432;2023-02-21T06:41:16;152.4;;;56.0;;
59653;SDS011;66556;52.008;5.432;2023-02-21T06:44:30;116.5;;;50.2;;
59653;SDS011;66556;52.008;5.432;2023-02-21T06:46:06;113.7;;;48.6;;
59653;SDS011;66556;52.008;5.432;2023-02-21T06:47:43;96.6;;;46.1;;
59653;SDS011;66556;52.008;5.432;2023-02-21T06:50:55;99.0;;;47.5;;
59653;SDS011;66556;52.008;5.432;2023-02-21T06:52:32;163.71;;;57.1;;
59653;SDS011;66556;52.008;5.432;2023-02-21T06:54:08;154.5;;;55.6;;
59653;SDS011;66556;52.008;5.432;2023-02-21T06:57:20;131.2;;;53.4;;
59653;SDS011;66556;52.008;5.432;2023-02-21T06:58:57;134.5;;;53.8;;
59653;SDS011;66556;52.008;5.432;2023-02-21T07:00:33;137.0;;;52.6;;
59653;SDS011;66556;52.008;5.432;2023-02-21T07:02:10;156.81;;;58.2;;
59653;SDS011;66556;52.008;5.432;2023-02-21T07:05:33;96.0;;;47.7;;
59653;SDS011;66556;52.008;5.432;2023-02-21T07:07:09;155.81;;;56.3;;
59653;SDS011;66556;52.008;5.432;2023-02-21T07:08:46;143.31;;;55.4;;
59653;SDS011;66556;52.008;5.432;2023-02-21T07:11:58;152.81;;;56.8;;
59653;SDS011;66556;52.008;5.432;2023-02-21T07:13:34;141.81;;;54.6;;
59653;SDS011;66556;52.008;5.432;2023-02-21T07:15:11;109.6;;;50.2;;
59653;SDS011;66556;52.008;5.432;2023-02-21T07:16:49;134.2;;;53.1;;
59653;SDS011;66556;52.008;5.432;2023-02-21T07:20:03;143.9;;;54.8;;
59653;SDS011;66556;52.008;5.432;2023-02-21T07:21:40;128.2;;;54.4;;
59653;SDS011;66556;52.008;5.432;2023-02-21T07:23:16;145.21;;;55.9;;
59653;SDS011;66556;52.008;5.432;2023-02-21T07:26:29;160.21;;;58.9;;
59653;SDS011;66556;52.008;5.432;2023-02-21T07:28:05;163.1;;;60.3;;
59653;SDS011;66556;52.008;5.432;2023-02-21T07:29:42;138.31;;;57.3;;
59653;SDS011;66556;52.008;5.432;2023-02-21T07:31:21;155.21;;;59.3;;
59653;SDS011;66556;52.008;5.432;2023-02-21T07:34:35;166.6;;;61.7;;
59653;SDS011;66556;52.008;5.432;2023-02-21T07:36:11;122.8;;;54.2;;
59653;SDS011;66556;52.008;5.432;2023-02-21T07:37:47;161.4;;;57.7;;
59653;SDS011;66556;52.008;5.432;2023-02-21T07:41:00;116.2;;;52.6;;
59653;SDS011;66556;52.008;5.432;2023-02-21T07:42:42;152.9;;;58.9;;
59653;SDS011;66556;52.008;5.432;2023-02-21T07:44:19;154.71;;;59.3;;
59653;SDS011;66556;52.008;5.432;2023-02-21T07:47:32;124.0;;;54.1;;
59653;SDS011;66556;52.008;5.432;2023-02-21T07:49:08;135.9;;;57.0;;
59653;SDS011;66556;52.008;5.432;2023-02-21T07:50:44;136.81;;;54.7;;
59653;SDS011;66556;52.008;5.432;2023-02-21T07:52:21;145.4;;;57.2;;
59653;SDS011;66556;52.008;5.432;2023-02-21T07:55:34;125.5;;;54.7;;
59653;SDS011;66556;52.008;5.432;2023-02-21T07:57:10;133.0;;;54.6;;
59653;SDS011;66556;52.008;5.432;2023-02-21T07:58:47;178.0;;;62.6;;
59653;SDS011;66556;52.008;5.432;2023-02-21T08:02:01;161.71;;;58.6;;
59653;SDS011;66556;52.008;5.432;2023-02-21T08:03:39;159.9;;;57.4;;
59653;SDS011;66556;52.008;5.432;2023-02-21T08:05:16;150.9;;;56.9;;
59653;SDS011;66556;52.008;5.432;2023-02-21T08:08:34;153.6;;;57.9;;
59653;SDS011;66556;52.008;5.432;2023-02-21T08:10:10;112.1;;;52.2;;
59653;SDS011;66556;52.008;5.432;2023-02-21T08:11:48;142.1;;;56.0;;
59653;SDS011;66556;52.008;5.432;2023-02-21T08:13:25;117.8;;;51.4;;
59653;SDS011;66556;52.008;5.432;2023-02-21T08:16:37;128.4;;;52.6;;
59653;SDS011;66556;52.008;5.432;2023-02-21T08:18:18;157.6;;;55.6;;
59653;SDS011;66556;52.008;5.432;2023-02-21T08:19:56;169.8;;;56.4;;
59653;SDS011;66556;52.008;5.432;2023-02-21T08:23:09;136.1;;;53.6;;
59653;SDS011;66556;52.008;5.432;2023-02-21T08:24:47;122.8;;;51.3;;
59653;SDS011;66556;52.008;5.432;2023-02-21T08:26:24;135.2;;;52.0;;
59653;SDS011;66556;52.008;5.432;2023-02-21T08:28:00;135.2;;;52.0;;
59653;SDS011;66556;52.008;5.432;2023-02-21T08:31:13;122.6;;;49.8;;
59653;SDS011;66556;52.008;5.432;2023-02-21T08:32:50;121.1;;;50.8;;
59653;SDS011;66556;52.008;5.432;2023-02-21T08:34:28;96.5;;;46.0;;
59653;SDS011;66556;52.008;5.432;2023-02-21T08:37:44;103.9;;;47.2;;
59653;SDS011;66556;52.008;5.432;2023-02-21T08:39:21;108.5;;;47.1;;
59653;SDS011;66556;52.008;5.432;2023-02-21T08:40:58;98.8;;;45.7;;
59653;SDS011;66556;52.008;5.432;2023-02-21T08:42:34;130.4;;;50.6;;
59653;SDS011;66556;52.008;5.432;2023-02-21T08:45:49;107.8;;;47.5;;
59653;SDS011;66556;52.008;5.432;2023-02-21T08:47:25;111.1;;;48.9;;
59653;SDS011;66556;52.008;5.432;2023-02-21T08:49:02;119.1;;;48.9;;
59653;SDS011;66556;52.008;5.432;2023-02-21T08:52:15;123.7;;;50.2;;
59653;SDS011;66556;52.008;5.432;2023-02-21T08:53:53;123.5;;;50.8;;
59653;SDS011;66556;52.008;5.432;2023-02-21T08:55:29;125.5;;;49.5;;
59653;SDS011;66556;52.008;5.432;2023-02-21T08:58:42;94.8;;;43.8;;
59653;SDS011;66556;52.008;5.432;2023-02-21T09:00:18;94.6;;;45.9;;
59653;SDS011;66556;52.008;5.432;2023-02-21T09:01:58;111.0;;;48.1;;
59653;SDS011;66556;52.008;5.432;2023-02-21T09:03:35;108.6;;;47.4;;
59653;SDS011;66556;52.008;5.432;2023-02-21T09:06:52;120.3;;;50.4;;
59653;SDS011;66556;52.008;5.432;2023-02-21T09:08:30;113.0;;;47.7;;
59653;SDS011;66556;52.008;5.432;2023-02-21T09:10:07;124.8;;;52.4;;
59653;SDS011;66556;52.008;5.432;2023-02-21T09:13:24;104.3;;;47.1;;
59653;SDS011;66556;52.008;5.432;2023-02-21T09:15:00;122.8;;;49.8;;
59653;SDS011;66556;52.008;5.432;2023-02-21T09:16:38;99.7;;;45.9;;
59653;SDS011;66556;52.008;5.432;2023-02-21T09:18:14;111.1;;;47.2;;
59653;SDS011;66556;52.008;5.432;2023-02-21T09:21:28;106.1;;;46.8;;
59653;SDS011;66556;52.008;5.432;2023-02-21T09:23:04;102.5;;;47.4;;
59653;SDS011;66556;52.008;5.432;2023-02-21T09:24:41;97.5;;;45.8;;
59653;SDS011;66556;52.008;5.432;2023-02-21T09:27:53;95.6;;;44.7;;
59653;SDS011;66556;52.008;5.432;2023-02-21T09:29:29;116.2;;;48.8;;
59653;SDS011;66556;52.008;5.432;2023-02-21T09:31:07;141.6;;;52.2;;
59653;SDS011;66556;52.008;5.432;2023-02-21T09:32:44;117.2;;;49.0;;
59653;SDS011;66556;52.008;5.432;2023-02-21T09:35:59;107.4;;;47.0;;
59653;SDS011;66556;52.008;5.432;2023-02-21T09:37:36;117.8;;;49.7;;
59653;SDS011;66556;52.008;5.432;2023-02-21T09:39:14;111.7;;;49.2;;
59653;SDS011;66556;52.008;5.432;2023-02-21T09:42:35;91.9;;;46.0;;
59653;SDS011;66556;52.008;5.432;2023-02-21T09:44:13;110.7;;;49.3;;
59653;SDS011;66556;52.008;5.432;2023-02-21T09:45:53;117.5;;;49.1;;
59653;SDS011;66556;52.008;5.432;2023-02-21T09:47:35;89.5;;;42.9;;
59653;SDS011;66556;52.008;5.432;2023-02-21T09:51:00;95.2;;;44.9;;
59653;SDS011;66556;52.008;5.432;2023-02-21T09:52:40;84.2;;;43.7;;
59653;SDS011;66556;52.008;5.432;2023-02-21T09:54:18;98.3;;;46.2;;
59653;SDS011;66556;52.008;5.432;2023-02-21T09:56:01;87.9;;;43.5;;
59653;SDS011;66556;52.008;5.432;2023-02-21T09:59:18;106.3;;;48.3;;
59653;SDS011;66556;52.008;5.432;2023-02-21T10:00:55;100.3;;;46.7;;
59653;SDS011;66556;52.008;5.432;2023-02-21T10:02:39;100.3;;;46.7;;
59653;SDS011;66556;52.008;5.432;2023-02-21T10:04:30;96.9;;;46.1;;
59653;SDS011;66556;52.008;5.432;2023-02-21T10:06:27;101.3;;;46.3;;
59653;SDS011;66556;52.008;5.432;2023-02-21T10:10:03;124.5;;;49.8;;
59653;SDS011;66556;52.008;5.432;2023-02-21T10:11:51;112.2;;;47.2;;
59653;SDS011;66556;52.008;5.432;2023-02-21T10:13:39;121.6;;;49.5;;
59653;SDS011;66556;52.008;5.432;2023-02-21T10:15:29;103.3;;;45.5;;
59653;SDS011;66556;52.008;5.432;2023-02-21T10:17:15;96.8;;;45.1;;
59653;SDS011;66556;52.008;5.432;2023-02-21T10:19:00;87.9;;;43.8;;
59653;SDS011;66556;52.008;5.432;2023-02-21T10:22:26;95.3;;;44.3;;
59653;SDS011;66556;52.008;5.432;2023-02-21T10:24:09;124.7;;;49.9;;
59653;SDS011;66556;52.008;5.432;2023-02-21T10:25:50;125.1;;;49.5;;
59653;SDS011;66556;52.008;5.432;2023-02-21T10:27:31;99.6;;;46.1;;
59653;SDS011;66556;52.008;5.432;2023-02-21T10:30:56;92.2;;;44.6;;
59653;SDS011;66556;52.008;5.432;2023-02-21T10:32:36;97.3;;;45.3;;
59653;SDS011;66556;52.008;5.432;2023-02-21T10:34:15;111.0;;;48.2;;
59653;SDS011;66556;52.008;5.432;2023-02-21T10:35:58;102.6;;;46.7;;
59653;SDS011;66556;52.008;5.432;2023-02-21T10:37:35;102.6;;;46.7;;
59653;SDS011;66556;52.008;5.432;2023-02-21T10:40:56;110.8;;;48.0;;
59653;SDS011;66556;52.008;5.432;2023-02-21T10:42:38;102.8;;;46.5;;
59653;SDS011;66556;52.008;5.432;2023-02-21T10:44:25;124.1;;;50.6;;
59653;SDS011;66556;52.008;5.432;2023-02-21T10:46:08;88.3;;;45.5;;
59653;SDS011;66556;52.008;5.432;2023-02-21T10:49:37;124.0;;;50.5;;
59653;SDS011;66556;52.008;5.432;2023-02-21T10:51:28;119.9;;;50.9;;
59653;SDS011;66556;52.008;5.432;2023-02-21T10:53:06;105.3;;;49.9;;
59653;SDS011;66556;52.008;5.432;2023-02-21T10:54:58;127.3;;;52.8;;
59653;SDS011;66556;52.008;5.432;2023-02-21T10:56:37;104.3;;;49.6;;
59653;SDS011;66556;52.008;5.432;2023-02-21T11:00:09;107.2;;;48.2;;
59653;SDS011;66556;52.008;5.432;2023-02-21T11:02:00;98.2;;;45.5;;
59653;SDS011;66556;52.008;5.432;2023-02-21T11:03:41;106.9;;;47.2;;
59653;SDS011;66556;52.008;5.432;2023-02-21T11:05:19;106.9;;;47.2;;
59653;SDS011;66556;52.008;5.432;2023-02-21T11:06:58;126.2;;;51.0;;
59653;SDS011;66556;52.008;5.432;2023-02-21T11:10:34;128.31;;;52.0;;
59653;SDS011;66556;52.008;5.432;2023-02-21T11:12:17;105.0;;;47.3;;
59653;SDS011;66556;52.008;5.432;2023-02-21T11:14:03;114.4;;;48.4;;
59653;SDS011;66556;52.008;5.432;2023-02-21T11:16:06;94.4;;;45.5;;
59653;SDS011;66556;52.008;5.432;2023-02-21T11:17:46;104.7;;;46.0;;
59653;SDS011;66556;52.008;5.432;2023-02-21T11:19:43;105.1;;;46.9;;
59653;SDS011;66556;52.008;5.432;2023-02-21T11:23:16;117.7;;;48.7;;
59653;SDS011;66556;52.008;5.432;2023-02-21T11:24:56;90.4;;;44.5;;
59653;SDS011;66556;52.008;5.432;2023-02-21T11:26:37;105.6;;;48.6;;
59653;SDS011;66556;52.008;5.432;2023-02-21T11:28:22;109.3;;;48.7;;
59653;SDS011;66556;52.008;5.432;2023-02-21T11:30:02;87.3;;;44.3;;
59653;SDS011;66556;52.008;5.432;2023-02-21T11:33:25;80.41;;;38.0;;
59653;SDS011;66556;52.008;5.432;2023-02-21T11:35:05;74.2;;;33.9;;
59653;SDS011;66556;52.008;5.432;2023-02-21T11:37:00;62.9;;;31.8;;
59653;SDS011;66556;52.008;5.432;2023-02-21T11:38:43;68.61;;;31.3;;
59653;SDS011;66556;52.008;5.432;2023-02-21T11:40:24;47.1;;;26.4;;
59653;SDS011;66556;52.008;5.432;2023-02-21T11:44:01;56.8;;;27.2;;
59653;SDS011;66556;52.008;5.432;2023-02-21T11:46:01;55.9;;;26.8;;
59653;SDS011;66556;52.008;5.432;2023-02-21T11:47:58;49.3;;;26.2;;
59653;SDS011;66556;52.008;5.432;2023-02-21T11:49:41;44.2;;;23.7;;
59653;SDS011;66556;52.008;5.432;2023-02-21T11:51:31;54.7;;;26.6;;
59653;SDS011;66556;52.008;5.432;2023-02-21T11:53:14;50.8;;;25.2;;
59653;SDS011;66556;52.008;5.432;2023-02-21T11:54:57;48.5;;;24.8;;
59653;SDS011;66556;52.008;5.432;2023-02-21T11:58:23;50.0;;;26.2;;
59653;SDS011;66556;52.008;5.432;2023-02-21T12:02:11;53.4;;;25.1;;
59653;SDS011;66556;52.008;5.432;2023-02-21T12:04:18;46.9;;;24.5;;
59653;SDS011;66556;52.008;5.432;2023-02-21T12:06:13;43.3;;;23.2;;
59653;SDS011;66556;52.008;5.432;2023-02-21T12:08:09;46.7;;;24.2;;
59653;SDS011;66556;52.008;5.432;2023-02-21T12:10:05;49.7;;;25.8;;
59653;SDS011;66556;52.008;5.432;2023-02-21T12:12:09;43.6;;;23.9;;
59653;SDS011;66556;52.008;5.432;2023-02-21T12:14:05;44.2;;;23.8;;
59653;SDS011;66556;52.008;5.432;2023-02-21T12:17:49;44.8;;;23.7;;
59653;SDS011;66556;52.008;5.432;2023-02-21T12:19:59;44.0;;;25.3;;
59653;SDS011;66556;52.008;5.432;2023-02-21T12:23:15;47.4;;;25.6;;
59653;SDS011;66556;52.008;5.432;2023-02-21T12:25:02;41.8;;;23.8;;
59653;SDS011;66556;52.008;5.432;2023-02-21T12:26:53;42.2;;;24.3;;
59653;SDS011;66556;52.008;5.432;2023-02-21T12:28:39;40.81;;;22.4;;
59653;SDS011;66556;52.008;5.432;2023-02-21T12:30:43;33.21;;;19.61;;
59653;SDS011;66556;52.008;5.432;2023-02-21T12:32:44;43.8;;;23.0;;
59653;SDS011;66556;52.008;5.432;2023-02-21T12:36:57;42.4;;;23.4;;
59653;SDS011;66556;52.008;5.432;2023-02-21T12:39:29;36.1;;;21.8;;
59653;SDS011;66556;52.008;5.432;2023-02-21T12:41:28;42.6;;;24.1;;
59653;SDS011;66556;52.008;5.432;2023-02-21T12:44:39;40.71;;;24.3;;
59653;SDS011;66556;52.008;5.432;2023-02-21T12:46:33;36.4;;;23.0;;
59653;SDS011;66556;52.008;5.432;2023-02-21T12:48:17;42.1;;;24.1;;
59653;SDS011;66556;52.008;5.432;2023-02-21T12:50:02;37.31;;;23.3;;
59653;SDS011;66556;52.008;5.432;2023-02-21T12:51:49;35.6;;;21.0;;
59653;SDS011;66556;52.008;5.432;2023-02-21T12:53:34;35.6;;;20.9;;
59653;SDS011;66556;52.008;5.432;2023-02-21T12:57:02;42.1;;;23.1;;
59653;SDS011;66556;52.008;5.432;2023-02-21T12:58:45;43.3;;;23.8;;
59653;SDS011;66556;52.008;5.432;2023-02-21T13:00:30;35.5;;;20.6;;
59653;SDS011;66556;52.008;5.432;2023-02-21T13:02:15;33.71;;;18.3;;
59653;SDS011;66556;52.008;5.432;2023-02-21T13:04:03;28.2;;;18.41;;
59653;SDS011;66556;52.008;5.432;2023-02-21T13:07:32;37.0;;;21.5;;
59653;SDS011;66556;52.008;5.432;2023-02-21T13:09:18;43.0;;;24.3;;
59653;SDS011;66556;52.008;5.432;2023-02-21T13:11:05;41.5;;;25.0;;
59653;SDS011;66556;52.008;5.432;2023-02-21T13:12:50;43.3;;;25.8;;
59653;SDS011;66556;52.008;5.432;2023-02-21T13:14:35;38.0;;;24.0;;
59653;SDS011;66556;52.008;5.432;2023-02-21T13:17:56;41.7;;;25.0;;
59653;SDS011;66556;52.008;5.432;2023-02-21T13:19:37;43.0;;;26.1;;
59653;SDS011;66556;52.008;5.432;2023-02-21T13:21:24;36.4;;;22.5;;
59653;SDS011;66556;52.008;5.432;2023-02-21T13:24:42;47.4;;;27.3;;
59653;SDS011;66556;52.008;5.432;2023-02-21T13:26:31;40.9;;;25.7;;
59653;SDS011;66556;52.008;5.432;2023-02-21T13:29:20;38.81;;;25.0;;
59653;SDS011;66556;52.008;5.432;2023-02-21T13:32:39;37.21;;;24.8;;
59653;SDS011;66556;52.008;5.432;2023-02-21T13:34:27;37.1;;;24.5;;
59653;SDS011;66556;52.008;5.432;2023-02-21T13:36:18;31.2;;;22.9;;
59653;SDS011;66556;52.008;5.432;2023-02-21T13:38:06;32.5;;;22.4;;
59653;SDS011;66556;52.008;5.432;2023-02-21T13:39:45;31.8;;;22.2;;
59653;SDS011;66556;52.008;5.432;2023-02-21T13:43:12;30.3;;;22.2;;
59653;SDS011;66556;52.008;5.432;2023-02-21T13:45:06;34.81;;;23.5;;
59653;SDS011;66556;52.008;5.432;2023-02-21T13:47:08;39.6;;;25.0;;
59653;SDS011;66556;52.008;5.432;2023-02-21T13:52:25;35.71;;;24.1;;
59653;SDS011;66556;52.008;5.432;2023-02-21T13:56:11;30.9;;;21.6;;
59653;SDS011;66556;52.008;5.432;2023-02-21T13:58:33;32.9;;;20.6;;
59653;SDS011;66556;52.008;5.432;2023-02-21T14:00:49;29.2;;;19.7;;
59653;SDS011;66556;52.008;5.432;2023-02-21T14:02:58;26.2;;;16.7;;
59653;SDS011;66556;52.008;5.432;2023-02-21T14:06:53;23.1;;;15.7;;
59653;SDS011;66556;52.008;5.432;2023-02-21T14:10:25;31.2;;;17.11;;
59653;SDS011;66556;52.008;5.432;2023-02-21T14:12:07;23.3;;;14.9;;
59653;SDS011;66556;52.008;5.432;2023-02-21T14:13:45;26.6;;;15.8;;
59653;SDS011;66556;52.008;5.432;2023-02-21T14:15:34;27.3;;;15.8;;
59653;SDS011;66556;52.008;5.432;2023-02-21T14:17:15;25.4;;;14.7;;
59653;SDS011;66556;52.008;5.432;2023-02-21T14:20:44;25.5;;;15.4;;
59653;SDS011;66556;52.008;5.432;2023-02-21T14:22:24;27.0;;;15.0;;
59653;SDS011;66556;52.008;5.432;2023-02-21T14:24:04;18.7;;;13.1;;
59653;SDS011;66556;52.008;5.432;2023-02-21T14:25:53;20.8;;;13.4;;
59653;SDS011;66556;52.008;5.432;2023-02-21T14:29:14;26.2;;;14.2;;
59653;SDS011;66556;52.008;5.432;2023-02-21T14:31:10;20.5;;;13.3;;
59653;SDS011;66556;52.008;5.432;2023-02-21T14:32:47;26.6;;;14.1;;
59653;SDS011;66556;52.008;5.432;2023-02-21T14:34:29;24.5;;;14.3;;
59653;SDS011;66556;52.008;5.432;2023-02-21T14:36:14;27.2;;;14.7;;
59653;SDS011;66556;52.008;5.432;2023-02-21T14:39:37;22.0;;;14.1;;
59653;SDS011;66556;52.008;5.432;2023-02-21T14:41:25;27.0;;;15.1;;
59653;SDS011;66556;52.008;5.432;2023-02-21T14:43:30;23.6;;;13.2;;
59653;SDS011;66556;52.008;5.432;2023-02-21T14:45:24;23.6;;;13.9;;
59653;SDS011;66556;52.008;5.432;2023-02-21T14:47:31;21.3;;;13.1;;
59653;SDS011;66556;52.008;5.432;2023-02-21T14:49:47;18.0;;;12.1;;
59653;SDS011;66556;52.008;5.432;2023-02-21T14:52:34;17.61;;;11.9;;
59653;SDS011;66556;52.008;5.432;2023-02-21T14:55:21;21.0;;;11.9;;
59653;SDS011;66556;52.008;5.432;2023-02-21T14:57:15;19.11;;;11.5;;
59653;SDS011;66556;52.008;5.432;2023-02-21T14:59:52;18.0;;;11.2;;
59653;SDS011;66556;52.008;5.432;2023-02-21T15:01:41;18.8;;;11.2;;
59653;SDS011;66556;52.008;5.432;2023-02-21T15:03:34;16.8;;;10.6;;
59653;SDS011;66556;52.008;5.432;2023-02-21T15:07:00;12.3;;;8.71;;
59653;SDS011;66556;52.008;5.432;2023-02-21T15:08:50;15.5;;;9.71;;
59653;SDS011;66556;52.008;5.432;2023-02-21T15:10:27;19.41;;;10.21;;
59653;SDS011;66556;52.008;5.432;2023-02-21T15:12:07;16.0;;;9.4;;
59653;SDS011;66556;52.008;5.432;2023-02-21T15:14:10;15.6;;;9.5;;